TAF KORF
AMD KORF 090655Z 0907/1006 36010G18KT P6SM SKC FM091200 02008KT P6SM SKC FM091900 05006KT P6SM SCT250 FM100000 VRB03KT P6SM SCT200=
METAR KORF
WC KORF
WS KORF
WV KORF